sensor_id;sensor_type;location;lat;lon;timestamp;noise_LAeq;noise_LA_min;noise_LA_max;noise_LA01;noise_LA95
45478;Laerm;31227;47.986;11.868;2023-04-23T00:01:15;38.53;35.66;40.62;;
45478;Laerm;31227;47.986;11.868;2023-04-23T00:03:41;38.54;35.36;40.89;;
45478;Laerm;31227;47.986;11.868;2023-04-23T00:06:07;38.50;34.69;40.71;;
45478;Laerm;31227;47.986;11.868;2023-04-23T00:08:34;38.51;35.36;40.80;;
45478;Laerm;31227;47.986;11.868;2023-04-23T00:11:01;38.55;35.31;40.89;;
45478;Laerm;31227;47.986;11.868;2023-04-23T00:13:26;38.52;35.66;41.14;;
45478;Laerm;31227;47.986;11.868;2023-04-23T00:15:51;38.54;35.66;40.98;;
45478;Laerm;31227;47.986;11.868;2023-04-23T00:18:17;38.57;35.04;41.22;;
45478;Laerm;31227;47.986;11.868;2023-04-23T00:20:43;38.53;35.36;40.80;;
45478;Laerm;31227;47.986;11.868;2023-04-23T00:23:08;38.53;35.04;40.80;;
45478;Laerm;31227;47.986;11.868;2023-04-23T00:25:33;38.53;35.31;40.71;;
45478;Laerm;31227;47.986;11.868;2023-04-23T00:27:59;38.50;35.94;41.14;;
45478;Laerm;31227;47.986;11.868;2023-04-23T00:30:24;38.54;35.66;41.30;;
45478;Laerm;31227;47.986;11.868;2023-04-23T00:32:49;38.46;34.31;40.62;;
45478;Laerm;31227;47.986;11.868;2023-04-23T00:35:14;38.46;35.66;40.71;;
45478;Laerm;31227;47.986;11.868;2023-04-23T00:37:41;38.49;35.36;40.62;;
45478;Laerm;31227;47.986;11.868;2023-04-23T00:40:06;38.43;35.36;40.62;;
45478;Laerm;31227;47.986;11.868;2023-04-23T00:42:32;38.49;35.66;41.06;;
45478;Laerm;31227;47.986;11.868;2023-04-23T00:44:57;38.42;35.66;40.80;;
45478;Laerm;31227;47.986;11.868;2023-04-23T00:47:23;38.44;35.66;40.89;;
45478;Laerm;31227;47.986;11.868;2023-04-23T00:49:48;38.39;35.36;40.62;;
45478;Laerm;31227;47.986;11.868;2023-04-23T00:52:15;38.40;35.36;40.89;;
45478;Laerm;31227;47.986;11.868;2023-04-23T00:54:40;38.41;35.94;40.62;;
45478;Laerm;31227;47.986;11.868;2023-04-23T00:57:05;38.38;35.36;40.63;;
45478;Laerm;31227;47.986;11.868;2023-04-23T00:59:32;38.44;35.66;41.30;;
45478;Laerm;31227;47.986;11.868;2023-04-23T01:01:57;38.37;35.66;40.71;;
45478;Laerm;31227;47.986;11.868;2023-04-23T01:04:23;38.40;35.36;40.71;;
45478;Laerm;31227;47.986;11.868;2023-04-23T01:06:48;38.38;35.36;40.89;;
45478;Laerm;31227;47.986;11.868;2023-04-23T01:09:14;38.38;35.94;40.89;;
45478;Laerm;31227;47.986;11.868;2023-04-23T01:11:41;38.38;35.66;40.71;;
45478;Laerm;31227;47.986;11.868;2023-04-23T01:14:07;38.40;35.86;40.53;;
45478;Laerm;31227;47.986;11.868;2023-04-23T01:16:33;38.39;35.36;40.71;;
45478;Laerm;31227;47.986;11.868;2023-04-23T01:18:58;38.34;35.36;41.06;;
45478;Laerm;31227;47.986;11.868;2023-04-23T01:21:24;38.35;34.69;40.62;;
45478;Laerm;31227;47.986;11.868;2023-04-23T01:23:49;38.32;35.36;40.53;;
45478;Laerm;31227;47.986;11.868;2023-04-23T01:26:15;38.34;35.66;40.53;;
45478;Laerm;31227;47.986;11.868;2023-04-23T01:28:42;38.34;35.66;40.89;;
45478;Laerm;31227;47.986;11.868;2023-04-23T01:31:09;38.32;35.36;40.23;;
45478;Laerm;31227;47.986;11.868;2023-04-23T01:33:35;38.34;34.69;40.53;;
45478;Laerm;31227;47.986;11.868;2023-04-23T01:36:01;38.34;35.36;40.33;;
45478;Laerm;31227;47.986;11.868;2023-04-23T01:38:27;38.36;35.36;40.62;;
45478;Laerm;31227;47.986;11.868;2023-04-23T01:40:54;38.30;34.31;40.62;;
45478;Laerm;31227;47.986;11.868;2023-04-23T01:43:19;38.32;35.04;40.43;;
45478;Laerm;31227;47.986;11.868;2023-04-23T01:45:46;38.34;35.36;40.53;;
45478;Laerm;31227;47.986;11.868;2023-04-23T01:48:11;38.33;35.59;40.43;;
45478;Laerm;31227;47.986;11.868;2023-04-23T01:50:36;38.31;35.59;40.71;;
45478;Laerm;31227;47.986;11.868;2023-04-23T01:53:02;38.33;35.04;40.80;;
45478;Laerm;31227;47.986;11.868;2023-04-23T01:55:27;38.29;35.04;40.53;;
45478;Laerm;31227;47.986;11.868;2023-04-23T01:57:52;38.26;35.04;40.43;;
45478;Laerm;31227;47.986;11.868;2023-04-23T02:00:17;38.34;35.04;40.98;;
45478;Laerm;31227;47.986;11.868;2023-04-23T02:02:43;38.38;34.69;40.63;;
45478;Laerm;31227;47.986;11.868;2023-04-23T02:05:13;38.39;34.69;40.89;;
45478;Laerm;31227;47.986;11.868;2023-04-23T02:07:39;38.35;35.36;40.62;;
45478;Laerm;31227;47.986;11.868;2023-04-23T02:10:05;38.30;35.04;40.43;;
45478;Laerm;31227;47.986;11.868;2023-04-23T02:12:30;38.30;35.36;40.53;;
45478;Laerm;31227;47.986;11.868;2023-04-23T02:14:55;38.28;35.04;40.62;;
45478;Laerm;31227;47.986;11.868;2023-04-23T02:17:21;38.27;35.36;40.62;;
45478;Laerm;31227;47.986;11.868;2023-04-23T02:19:47;38.29;35.36;41.06;;
45478;Laerm;31227;47.986;11.868;2023-04-23T02:22:12;38.28;35.04;40.53;;
45478;Laerm;31227;47.986;11.868;2023-04-23T02:24:37;38.33;35.36;40.80;;
45478;Laerm;31227;47.986;11.868;2023-04-23T02:27:03;38.35;35.04;41.06;;
45478;Laerm;31227;47.986;11.868;2023-04-23T02:29:28;38.32;35.04;40.43;;
45478;Laerm;31227;47.986;11.868;2023-04-23T02:31:53;38.28;34.69;40.33;;
45478;Laerm;31227;47.986;11.868;2023-04-23T02:34:18;38.32;35.66;40.62;;
45478;Laerm;31227;47.986;11.868;2023-04-23T02:36:44;38.32;35.36;40.98;;
45478;Laerm;31227;47.986;11.868;2023-04-23T02:39:09;38.30;35.36;40.33;;
45478;Laerm;31227;47.986;11.868;2023-04-23T02:41:34;38.29;34.69;40.62;;
45478;Laerm;31227;47.986;11.868;2023-04-23T02:44:00;38.30;35.66;40.80;;
45478;Laerm;31227;47.986;11.868;2023-04-23T02:46:25;38.28;35.36;40.43;;
45478;Laerm;31227;47.986;11.868;2023-04-23T02:48:50;38.38;35.36;42.65;;
45478;Laerm;31227;47.986;11.868;2023-04-23T02:51:15;38.23;35.36;40.71;;
45478;Laerm;31227;47.986;11.868;2023-04-23T02:53:40;38.18;35.04;40.43;;
45478;Laerm;31227;47.986;11.868;2023-04-23T02:56:06;38.17;34.69;41.06;;
45478;Laerm;31227;47.986;11.868;2023-04-23T02:58:31;38.12;34.69;40.33;;
45478;Laerm;31227;47.986;11.868;2023-04-23T03:00:57;38.13;34.69;40.71;;
45478;Laerm;31227;47.986;11.868;2023-04-23T03:03:23;38.11;34.31;40.33;;
45478;Laerm;31227;47.986;11.868;2023-04-23T03:05:50;38.09;35.04;40.53;;
45478;Laerm;31227;47.986;11.868;2023-04-23T03:08:16;38.07;35.04;40.13;;
45478;Laerm;31227;47.986;11.868;2023-04-23T03:10:41;38.14;35.04;40.33;;
45478;Laerm;31227;47.986;11.868;2023-04-23T03:13:06;38.08;35.04;40.23;;
45478;Laerm;31227;47.986;11.868;2023-04-23T03:15:32;38.14;35.04;41.53;;
45478;Laerm;31227;47.986;11.868;2023-04-23T03:17:57;38.19;35.04;41.22;;
45478;Laerm;31227;47.986;11.868;2023-04-23T03:20:22;38.10;35.04;40.43;;
45478;Laerm;31227;47.986;11.868;2023-04-23T03:22:47;38.14;35.36;41.75;;
45478;Laerm;31227;47.986;11.868;2023-04-23T03:25:12;38.12;35.31;40.33;;
45478;Laerm;31227;47.986;11.868;2023-04-23T03:27:38;38.12;35.04;40.23;;
45478;Laerm;31227;47.986;11.868;2023-04-23T03:30:04;38.15;34.69;40.43;;
45478;Laerm;31227;47.986;11.868;2023-04-23T03:32:31;38.17;35.36;40.33;;
45478;Laerm;31227;47.986;11.868;2023-04-23T03:34:57;38.19;35.04;40.53;;
45478;Laerm;31227;47.986;11.868;2023-04-23T03:37:22;38.19;35.04;40.80;;
45478;Laerm;31227;47.986;11.868;2023-04-23T03:39:47;38.16;35.31;40.43;;
45478;Laerm;31227;47.986;11.868;2023-04-23T03:42:12;38.18;35.31;40.45;;
45478;Laerm;31227;47.986;11.868;2023-04-23T03:44:37;38.11;35.04;40.23;;
45478;Laerm;31227;47.986;11.868;2023-04-23T03:47:03;38.09;35.36;40.23;;
45478;Laerm;31227;47.986;11.868;2023-04-23T03:49:28;38.09;35.36;40.23;;
45478;Laerm;31227;47.986;11.868;2023-04-23T03:51:53;38.08;34.31;40.23;;
45478;Laerm;31227;47.986;11.868;2023-04-23T03:54:19;38.07;34.69;40.80;;
45478;Laerm;31227;47.986;11.868;2023-04-23T03:56:44;38.06;35.04;40.62;;
45478;Laerm;31227;47.986;11.868;2023-04-23T03:59:09;38.04;34.69;40.33;;
45478;Laerm;31227;47.986;11.868;2023-04-23T04:01:34;38.04;34.31;40.33;;
45478;Laerm;31227;47.986;11.868;2023-04-23T04:04:00;38.04;35.04;40.43;;
45478;Laerm;31227;47.986;11.868;2023-04-23T04:06:25;38.01;34.69;40.62;;
45478;Laerm;31227;47.986;11.868;2023-04-23T04:08:50;37.96;34.69;40.33;;
45478;Laerm;31227;47.986;11.868;2023-04-23T04:11:16;38.00;33.44;40.43;;
45478;Laerm;31227;47.986;11.868;2023-04-23T04:13:41;37.92;33.55;40.23;;
45478;Laerm;31227;47.986;11.868;2023-04-23T04:16:06;37.97;34.69;40.80;;
45478;Laerm;31227;47.986;11.868;2023-04-23T04:18:31;37.98;34.69;41.38;;
45478;Laerm;31227;47.986;11.868;2023-04-23T04:20:56;37.90;34.69;40.33;;
45478;Laerm;31227;47.986;11.868;2023-04-23T04:23:22;37.86;33.44;40.13;;
45478;Laerm;31227;47.986;11.868;2023-04-23T04:25:47;37.81;34.31;40.03;;
45478;Laerm;31227;47.986;11.868;2023-04-23T04:28:14;37.92;34.31;40.98;;
45478;Laerm;31227;47.986;11.868;2023-04-23T04:30:40;38.15;34.69;41.22;;
45478;Laerm;31227;47.986;11.868;2023-04-23T04:33:06;38.17;34.69;40.80;;
45478;Laerm;31227;47.986;11.868;2023-04-23T04:35:33;37.97;35.04;40.33;;
45478;Laerm;31227;47.986;11.868;2023-04-23T04:37:58;37.91;34.69;43.14;;
45478;Laerm;31227;47.986;11.868;2023-04-23T04:40:23;38.16;33.44;59.21;;
45478;Laerm;31227;47.986;11.868;2023-04-23T04:42:50;38.21;35.04;40.71;;
45478;Laerm;31227;47.986;11.868;2023-04-23T04:45:16;38.37;34.69;40.80;;
45478;Laerm;31227;47.986;11.868;2023-04-23T04:47:42;38.45;34.69;41.19;;
45478;Laerm;31227;47.986;11.868;2023-04-23T04:50:07;38.49;34.69;40.98;;
45478;Laerm;31227;47.986;11.868;2023-04-23T04:52:32;38.56;35.04;41.46;;
45478;Laerm;31227;47.986;11.868;2023-04-23T04:54:57;38.52;35.36;40.98;;
45478;Laerm;31227;47.986;11.868;2023-04-23T04:57:22;38.53;35.04;40.89;;
45478;Laerm;31227;47.986;11.868;2023-04-23T04:59:48;38.46;34.69;41.06;;
45478;Laerm;31227;47.986;11.868;2023-04-23T05:02:14;38.18;34.69;40.53;;
45478;Laerm;31227;47.986;11.868;2023-04-23T05:04:39;38.19;33.90;40.98;;
45478;Laerm;31227;47.986;11.868;2023-04-23T05:07:04;38.28;34.69;40.98;;
45478;Laerm;31227;47.986;11.868;2023-04-23T05:09:29;38.28;33.90;40.98;;
45478;Laerm;31227;47.986;11.868;2023-04-23T05:11:55;38.41;34.69;40.71;;
45478;Laerm;31227;47.986;11.868;2023-04-23T05:14:20;38.28;33.90;40.89;;
45478;Laerm;31227;47.986;11.868;2023-04-23T05:16:45;38.14;34.69;40.71;;
45478;Laerm;31227;47.986;11.868;2023-04-23T05:19:11;38.37;35.04;41.68;;
45478;Laerm;31227;47.986;11.868;2023-04-23T05:21:36;38.30;35.04;40.80;;
45478;Laerm;31227;47.986;11.868;2023-04-23T05:24:01;38.18;34.69;40.80;;
45478;Laerm;31227;47.986;11.868;2023-04-23T05:26:26;38.00;34.69;40.43;;
45478;Laerm;31227;47.986;11.868;2023-04-23T05:28:52;37.84;33.44;44.39;;
45478;Laerm;31227;47.986;11.868;2023-04-23T05:31:17;37.91;33.90;43.77;;
45478;Laerm;31227;47.986;11.868;2023-04-23T05:33:42;37.77;33.90;40.62;;
45478;Laerm;31227;47.986;11.868;2023-04-23T05:36:11;37.86;34.34;41.46;;
45478;Laerm;31227;47.986;11.868;2023-04-23T05:38:37;37.93;34.69;43.72;;
45478;Laerm;31227;47.986;11.868;2023-04-23T05:41:02;37.83;34.69;41.22;;
45478;Laerm;31227;47.986;11.868;2023-04-23T05:43:27;37.84;34.31;40.23;;
45478;Laerm;31227;47.986;11.868;2023-04-23T05:45:52;37.85;32.35;40.71;;
45478;Laerm;31227;47.986;11.868;2023-04-23T05:48:17;37.85;34.31;40.53;;
45478;Laerm;31227;47.986;11.868;2023-04-23T05:50:43;37.81;34.31;40.23;;
45478;Laerm;31227;47.986;11.868;2023-04-23T05:53:08;37.82;34.31;40.80;;
45478;Laerm;31227;47.986;11.868;2023-04-23T05:55:33;37.79;33.44;41.46;;
45478;Laerm;31227;47.986;11.868;2023-04-23T05:57:58;37.87;33.90;41.19;;
45478;Laerm;31227;47.986;11.868;2023-04-23T06:00:23;37.84;33.90;42.47;;
45478;Laerm;31227;47.986;11.868;2023-04-23T06:02:49;37.87;33.90;41.30;;
45478;Laerm;31227;47.986;11.868;2023-04-23T06:05:14;37.77;32.93;40.03;;
45478;Laerm;31227;47.986;11.868;2023-04-23T06:07:41;37.80;34.31;40.36;;
45478;Laerm;31227;47.986;11.868;2023-04-23T06:10:06;37.79;33.44;40.23;;
45478;Laerm;31227;47.986;11.868;2023-04-23T06:12:32;37.86;33.90;41.82;;
45478;Laerm;31227;47.986;11.868;2023-04-23T06:14:57;37.83;34.69;41.30;;
45478;Laerm;31227;47.986;11.868;2023-04-23T06:17:22;37.87;34.31;43.29;;
45478;Laerm;31227;47.986;11.868;2023-04-23T06:19:51;37.87;34.31;40.33;;
45478;Laerm;31227;47.986;11.868;2023-04-23T06:22:16;37.88;34.69;40.23;;
45478;Laerm;31227;47.986;11.868;2023-04-23T06:24:41;37.94;34.31;43.04;;
45478;Laerm;31227;47.986;11.868;2023-04-23T06:27:06;37.91;34.31;41.11;;
45478;Laerm;31227;47.986;11.868;2023-04-23T06:29:32;37.88;34.31;40.62;;
45478;Laerm;31227;47.986;11.868;2023-04-23T06:32:00;37.96;35.04;40.43;;
45478;Laerm;31227;47.986;11.868;2023-04-23T06:34:25;38.06;34.69;42.36;;
45478;Laerm;31227;47.986;11.868;2023-04-23T06:36:50;38.10;33.44;43.34;;
45478;Laerm;31227;47.986;11.868;2023-04-23T06:39:16;38.04;35.04;43.33;;
45478;Laerm;31227;47.986;11.868;2023-04-23T06:41:41;38.07;34.69;43.24;;
45478;Laerm;31227;47.986;11.868;2023-04-23T06:44:06;37.97;34.31;42.29;;
45478;Laerm;31227;47.986;11.868;2023-04-23T06:46:31;37.93;34.31;40.71;;
45478;Laerm;31227;47.986;11.868;2023-04-23T06:48:56;37.93;34.69;40.33;;
45478;Laerm;31227;47.986;11.868;2023-04-23T06:51:23;37.99;34.69;41.96;;
45478;Laerm;31227;47.986;11.868;2023-04-23T06:53:49;37.95;34.31;40.71;;
45478;Laerm;31227;47.986;11.868;2023-04-23T06:56:14;37.91;34.31;40.23;;
45478;Laerm;31227;47.986;11.868;2023-04-23T06:58:39;37.95;34.69;40.23;;
45478;Laerm;31227;47.986;11.868;2023-04-23T07:01:05;37.89;34.31;40.43;;
45478;Laerm;31227;47.986;11.868;2023-04-23T07:03:31;37.83;34.69;40.53;;
45478;Laerm;31227;47.986;11.868;2023-04-23T07:05:56;37.88;34.31;40.45;;
45478;Laerm;31227;47.986;11.868;2023-04-23T07:08:22;37.91;34.69;40.33;;
45478;Laerm;31227;47.986;11.868;2023-04-23T07:10:47;37.91;34.69;40.79;;
45478;Laerm;31227;47.986;11.868;2023-04-23T07:13:12;37.93;34.31;40.71;;
45478;Laerm;31227;47.986;11.868;2023-04-23T07:15:38;37.88;34.31;40.43;;
45478;Laerm;31227;47.986;11.868;2023-04-23T07:18:03;37.91;34.69;40.43;;
45478;Laerm;31227;47.986;11.868;2023-04-23T07:20:28;37.91;33.44;40.62;;
45478;Laerm;31227;47.986;11.868;2023-04-23T07:22:54;37.85;33.90;40.23;;
45478;Laerm;31227;47.986;11.868;2023-04-23T07:25:19;38.01;34.69;41.82;;
45478;Laerm;31227;47.986;11.868;2023-04-23T07:27:46;37.89;34.31;42.71;;
45478;Laerm;31227;47.986;11.868;2023-04-23T07:30:11;38.02;33.44;41.06;;
45478;Laerm;31227;47.986;11.868;2023-04-23T07:32:37;37.99;34.31;42.03;;
45478;Laerm;31227;47.986;11.868;2023-04-23T07:35:02;37.93;33.90;40.43;;
45478;Laerm;31227;47.986;11.868;2023-04-23T07:37:28;37.85;33.44;40.33;;
45478;Laerm;31227;47.986;11.868;2023-04-23T07:39:54;37.93;33.44;40.43;;
45478;Laerm;31227;47.986;11.868;2023-04-23T07:42:19;37.85;34.69;40.13;;
45478;Laerm;31227;47.986;11.868;2023-04-23T07:44:44;37.86;34.31;40.33;;
45478;Laerm;31227;47.986;11.868;2023-04-23T07:47:09;38.03;34.69;40.71;;
45478;Laerm;31227;47.986;11.868;2023-04-23T07:49:35;38.02;34.31;40.71;;
45478;Laerm;31227;47.986;11.868;2023-04-23T07:52:00;37.94;34.69;40.71;;
45478;Laerm;31227;47.986;11.868;2023-04-23T07:54:25;38.02;34.31;40.71;;
45478;Laerm;31227;47.986;11.868;2023-04-23T07:56:51;38.03;34.69;40.62;;
45478;Laerm;31227;47.986;11.868;2023-04-23T07:59:16;38.14;34.31;41.22;;
45478;Laerm;31227;47.986;11.868;2023-04-23T08:01:41;38.09;33.90;43.54;;
45478;Laerm;31227;47.986;11.868;2023-04-23T08:04:06;37.93;33.90;40.33;;
45478;Laerm;31227;47.986;11.868;2023-04-23T08:06:31;38.02;34.69;40.62;;
45478;Laerm;31227;47.986;11.868;2023-04-23T08:08:59;37.98;34.69;40.33;;
45478;Laerm;31227;47.986;11.868;2023-04-23T08:11:24;37.83;33.90;41.30;;
45478;Laerm;31227;47.986;11.868;2023-04-23T08:13:49;37.98;34.31;41.61;;
45478;Laerm;31227;47.986;11.868;2023-04-23T08:16:15;37.90;32.93;40.53;;
45478;Laerm;31227;47.986;11.868;2023-04-23T08:18:40;37.82;34.31;40.23;;
45478;Laerm;31227;47.986;11.868;2023-04-23T08:21:05;37.85;34.69;40.43;;
45478;Laerm;31227;47.986;11.868;2023-04-23T08:23:31;38.04;34.31;41.68;;
45478;Laerm;31227;47.986;11.868;2023-04-23T08:25:56;38.24;34.31;43.09;;
45478;Laerm;31227;47.986;11.868;2023-04-23T08:28:21;38.04;34.31;40.71;;
45478;Laerm;31227;47.986;11.868;2023-04-23T08:30:46;37.92;33.90;40.43;;
45478;Laerm;31227;47.986;11.868;2023-04-23T08:33:12;37.97;34.31;40.53;;
45478;Laerm;31227;47.986;11.868;2023-04-23T08:35:37;37.92;33.55;40.43;;
45478;Laerm;31227;47.986;11.868;2023-04-23T08:38:03;37.87;34.31;40.62;;
45478;Laerm;31227;47.986;11.868;2023-04-23T08:40:29;37.87;33.90;40.71;;
45478;Laerm;31227;47.986;11.868;2023-04-23T08:45:20;37.92;34.31;40.62;;
45478;Laerm;31227;47.986;11.868;2023-04-23T08:47:46;37.95;33.90;40.33;;
45478;Laerm;31227;47.986;11.868;2023-04-23T08:50:12;37.93;34.69;40.53;;
45478;Laerm;31227;47.986;11.868;2023-04-23T08:52:39;38.01;32.93;40.71;;
45478;Laerm;31227;47.986;11.868;2023-04-23T08:55:06;37.92;34.31;40.71;;
45478;Laerm;31227;47.986;11.868;2023-04-23T08:57:34;38.09;33.44;42.22;;
45478;Laerm;31227;47.986;11.868;2023-04-23T08:59:59;37.98;35.04;40.18;;
45478;Laerm;31227;47.986;11.868;2023-04-23T09:02:29;37.98;34.31;40.53;;
45478;Laerm;31227;47.986;11.868;2023-04-23T09:04:55;37.93;34.31;40.43;;
45478;Laerm;31227;47.986;11.868;2023-04-23T09:07:20;37.95;33.90;40.89;;
45478;Laerm;31227;47.986;11.868;2023-04-23T09:09:45;37.93;35.04;40.53;;
45478;Laerm;31227;47.986;11.868;2023-04-23T09:12:10;38.00;34.31;40.62;;
45478;Laerm;31227;47.986;11.868;2023-04-23T09:14:36;37.91;34.69;40.23;;
45478;Laerm;31227;47.986;11.868;2023-04-23T09:17:01;38.12;34.69;41.89;;
45478;Laerm;31227;47.986;11.868;2023-04-23T09:19:27;37.88;34.31;40.23;;
45478;Laerm;31227;47.986;11.868;2023-04-23T09:21:52;37.89;33.44;40.23;;
45478;Laerm;31227;47.986;11.868;2023-04-23T09:24:17;37.95;35.04;40.89;;
45478;Laerm;31227;47.986;11.868;2023-04-23T09:26:47;38.06;34.69;42.09;;
45478;Laerm;31227;47.986;11.868;2023-04-23T09:29:22;38.14;34.31;42.47;;
45478;Laerm;31227;47.986;11.868;2023-04-23T09:32:06;37.98;34.31;40.33;;
45478;Laerm;31227;47.986;11.868;2023-04-23T09:34:33;38.02;34.31;40.43;;
45478;Laerm;31227;47.986;11.868;2023-04-23T09:36:58;38.11;34.31;40.23;;
45478;Laerm;31227;47.986;11.868;2023-04-23T09:39:24;38.12;34.31;41.06;;
45478;Laerm;31227;47.986;11.868;2023-04-23T09:41:52;38.13;34.31;44.97;;
45478;Laerm;31227;47.986;11.868;2023-04-23T09:44:18;38.09;34.31;41.22;;
45478;Laerm;31227;47.986;11.868;2023-04-23T09:46:43;37.95;34.69;40.13;;
45478;Laerm;31227;47.986;11.868;2023-04-23T09:49:09;38.01;34.69;40.43;;
45478;Laerm;31227;47.986;11.868;2023-04-23T09:51:36;38.08;35.04;40.71;;
45478;Laerm;31227;47.986;11.868;2023-04-23T09:54:01;38.15;35.31;40.54;;
45478;Laerm;31227;47.986;11.868;2023-04-23T09:56:28;38.09;33.90;40.23;;
45478;Laerm;31227;47.986;11.868;2023-04-23T09:58:53;38.14;35.04;40.71;;
45478;Laerm;31227;47.986;11.868;2023-04-23T10:01:20;38.21;35.04;40.80;;
45478;Laerm;31227;47.986;11.868;2023-04-23T10:03:51;38.27;35.31;40.71;;
45478;Laerm;31227;47.986;11.868;2023-04-23T10:06:17;38.27;34.69;40.53;;
45478;Laerm;31227;47.986;11.868;2023-04-23T10:08:42;38.43;35.04;44.76;;
45478;Laerm;31227;47.986;11.868;2023-04-23T10:11:08;38.22;35.04;40.43;;
45478;Laerm;31227;47.986;11.868;2023-04-23T10:13:34;38.30;35.04;41.06;;
45478;Laerm;31227;47.986;11.868;2023-04-23T10:16:00;38.35;34.69;40.98;;
45478;Laerm;31227;47.986;11.868;2023-04-23T10:18:26;38.38;35.59;42.03;;
45478;Laerm;31227;47.986;11.868;2023-04-23T10:20:51;38.38;35.36;40.53;;
45478;Laerm;31227;47.986;11.868;2023-04-23T10:23:18;38.48;35.36;40.89;;
45478;Laerm;31227;47.986;11.868;2023-04-23T10:25:46;38.46;35.66;41.30;;
45478;Laerm;31227;47.986;11.868;2023-04-23T10:28:11;38.49;35.04;42.22;;
45478;Laerm;31227;47.986;11.868;2023-04-23T10:30:38;38.63;35.66;42.35;;
45478;Laerm;31227;47.986;11.868;2023-04-23T10:33:04;38.95;35.94;41.75;;
45478;Laerm;31227;47.986;11.868;2023-04-23T10:35:30;39.04;35.94;41.96;;
45478;Laerm;31227;47.986;11.868;2023-04-23T10:37:57;38.83;36.20;41.30;;
45478;Laerm;31227;47.986;11.868;2023-04-23T10:40:24;39.25;35.94;44.15;;
45478;Laerm;31227;47.986;11.868;2023-04-23T10:42:51;38.95;35.94;41.96;;
45478;Laerm;31227;47.986;11.868;2023-04-23T10:45:17;38.96;35.66;41.75;;
45478;Laerm;31227;47.986;11.868;2023-04-23T10:47:43;39.09;35.94;43.86;;
45478;Laerm;31227;47.986;11.868;2023-04-23T10:50:18;38.87;35.66;41.75;;
45478;Laerm;31227;47.986;11.868;2023-04-23T10:52:47;38.87;35.36;42.59;;
45478;Laerm;31227;47.986;11.868;2023-04-23T10:55:21;38.92;35.36;42.22;;
45478;Laerm;31227;47.986;11.868;2023-04-23T10:58:02;38.86;35.94;43.29;;
45478;Laerm;31227;47.986;11.868;2023-04-23T11:00:29;38.83;35.36;41.38;;
45478;Laerm;31227;47.986;11.868;2023-04-23T11:02:54;38.84;35.94;42.71;;
45478;Laerm;31227;47.986;11.868;2023-04-23T11:05:22;38.78;35.66;41.30;;
45478;Laerm;31227;47.986;11.868;2023-04-23T11:08:02;38.87;35.36;41.55;;
45478;Laerm;31227;47.986;11.868;2023-04-23T11:10:29;38.86;35.36;42.76;;
45478;Laerm;31227;47.986;11.868;2023-04-23T11:12:55;39.02;35.36;42.03;;
45478;Laerm;31227;47.986;11.868;2023-04-23T11:15:20;39.01;35.36;42.42;;
45478;Laerm;31227;47.986;11.868;2023-04-23T11:25:03;38.92;35.66;41.22;;
45478;Laerm;31227;47.986;11.868;2023-04-23T11:27:29;38.82;35.66;42.09;;
45478;Laerm;31227;47.986;11.868;2023-04-23T11:29:55;38.93;35.94;41.30;;
45478;Laerm;31227;47.986;11.868;2023-04-23T11:32:20;38.77;35.94;41.06;;
45478;Laerm;31227;47.986;11.868;2023-04-23T11:34:46;38.82;35.59;41.82;;
45478;Laerm;31227;47.986;11.868;2023-04-23T11:37:15;39.14;35.66;42.65;;
45478;Laerm;31227;47.986;11.868;2023-04-23T11:39:41;38.84;35.94;41.68;;
45478;Laerm;31227;47.986;11.868;2023-04-23T11:42:16;38.86;35.94;41.61;;
45478;Laerm;31227;47.986;11.868;2023-04-23T11:44:45;38.97;35.66;41.68;;
45478;Laerm;31227;47.986;11.868;2023-04-23T11:47:12;39.08;35.66;42.09;;
45478;Laerm;31227;47.986;11.868;2023-04-23T11:49:38;39.13;35.94;42.76;;
45478;Laerm;31227;47.986;11.868;2023-04-23T11:52:03;38.97;35.59;41.46;;
45478;Laerm;31227;47.986;11.868;2023-04-23T11:54:29;39.04;35.66;42.16;;
45478;Laerm;31227;47.986;11.868;2023-04-23T11:56:54;39.01;35.59;42.03;;
45478;Laerm;31227;47.986;11.868;2023-04-23T11:59:20;39.33;36.20;42.88;;
45478;Laerm;31227;47.986;11.868;2023-04-23T12:01:51;39.43;35.94;43.46;;
45478;Laerm;31227;47.986;11.868;2023-04-23T12:04:21;38.97;34.69;42.47;;
45478;Laerm;31227;47.986;11.868;2023-04-23T12:06:47;39.07;36.34;43.14;;
45478;Laerm;31227;47.986;11.868;2023-04-23T12:09:13;38.94;36.20;41.22;;
45478;Laerm;31227;47.986;11.868;2023-04-23T12:11:40;38.97;35.66;42.03;;
45478;Laerm;31227;47.986;11.868;2023-04-23T12:14:05;38.98;35.66;41.96;;
45478;Laerm;31227;47.986;11.868;2023-04-23T12:16:39;39.27;36.20;45.69;;
45478;Laerm;31227;47.986;11.868;2023-04-23T12:19:08;39.13;35.66;41.89;;
45478;Laerm;31227;47.986;11.868;2023-04-23T12:21:34;39.06;35.59;42.16;;
45478;Laerm;31227;47.986;11.868;2023-04-23T12:23:59;38.93;35.66;41.61;;
45478;Laerm;31227;47.986;11.868;2023-04-23T12:26:27;38.89;36.20;41.46;;
45478;Laerm;31227;47.986;11.868;2023-04-23T12:28:53;39.08;35.94;42.65;;
45478;Laerm;31227;47.986;11.868;2023-04-23T12:31:23;38.98;36.10;41.89;;
45478;Laerm;31227;47.986;11.868;2023-04-23T12:34:04;39.10;36.20;41.61;;
45478;Laerm;31227;47.986;11.868;2023-04-23T12:36:30;39.27;35.94;44.69;;
45478;Laerm;31227;47.986;11.868;2023-04-23T12:41:40;39.20;35.94;42.93;;
45478;Laerm;31227;47.986;11.868;2023-04-23T12:44:06;39.59;36.20;44.03;;
45478;Laerm;31227;47.986;11.868;2023-04-23T12:46:31;39.20;36.45;42.29;;
45478;Laerm;31227;47.986;11.868;2023-04-23T12:48:56;39.81;37.12;43.39;;
45478;Laerm;31227;47.986;11.868;2023-04-23T12:51:22;40.25;37.70;46.48;;
45478;Laerm;31227;47.986;11.868;2023-04-23T12:53:47;40.06;37.32;45.98;;
45478;Laerm;31227;47.986;11.868;2023-04-23T12:56:12;40.11;36.91;45.97;;
45478;Laerm;31227;47.986;11.868;2023-04-23T12:58:37;39.69;36.45;43.63;;
45478;Laerm;31227;47.986;11.868;2023-04-23T13:01:02;39.14;35.66;42.29;;
45478;Laerm;31227;47.986;11.868;2023-04-23T13:03:27;39.00;36.20;43.19;;
45478;Laerm;31227;47.986;11.868;2023-04-23T13:05:53;39.09;36.10;41.68;;
45478;Laerm;31227;47.986;11.868;2023-04-23T13:08:18;39.13;36.20;42.03;;
45478;Laerm;31227;47.986;11.868;2023-04-23T13:10:43;39.17;36.20;45.54;;
45478;Laerm;31227;47.986;11.868;2023-04-23T13:13:09;39.04;35.66;42.82;;
45478;Laerm;31227;47.986;11.868;2023-04-23T13:15:34;39.18;36.45;43.68;;
45478;Laerm;31227;47.986;11.868;2023-04-23T13:17:59;39.01;35.36;43.29;;
45478;Laerm;31227;47.986;11.868;2023-04-23T13:20:24;39.46;36.20;42.93;;
45478;Laerm;31227;47.986;11.868;2023-04-23T13:22:50;39.22;35.94;44.42;;
45478;Laerm;31227;47.986;11.868;2023-04-23T13:25:15;39.47;35.94;45.33;;
45478;Laerm;31227;47.986;11.868;2023-04-23T13:27:40;39.17;35.36;44.90;;
45478;Laerm;31227;47.986;11.868;2023-04-23T13:30:05;39.01;35.94;42.71;;
45478;Laerm;31227;47.986;11.868;2023-04-23T13:32:31;39.24;36.20;42.65;;
45478;Laerm;31227;47.986;11.868;2023-04-23T13:34:56;39.29;35.36;42.41;;
45478;Laerm;31227;47.986;11.868;2023-04-23T13:37:24;39.53;35.66;46.43;;